createdAt,value
2023-05-02T00:01:06.784Z,6.32
2023-05-02T00:11:10.743Z,6.32
2023-05-02T00:21:14.083Z,6.95
2023-05-02T00:31:18.349Z,8.18
2023-05-02T00:41:21.053Z,7.13
2023-05-02T00:51:25.112Z,4.70
2023-05-02T01:01:36.815Z,2.42
2023-05-02T01:11:49.076Z,2.67
2023-05-02T01:21:54.149Z,3.00
2023-05-02T01:32:00.308Z,1.80
2023-05-02T01:42:04.621Z,1.40
2023-05-02T01:52:11.455Z,1.90
2023-05-02T02:02:15.394Z,2.60
2023-05-02T02:12:26.990Z,2.70
2023-05-02T02:22:31.317Z,2.95
2023-05-02T02:32:35.428Z,3.45
2023-05-02T02:42:45.617Z,2.00
2023-05-02T02:52:56.193Z,2.63
2023-05-02T03:02:59.028Z,3.08
2023-05-02T03:13:03.690Z,2.30
2023-05-02T03:23:06.361Z,2.78
2023-05-02T03:33:10.469Z,2.65
2023-05-02T03:43:13.157Z,3.25
2023-05-02T03:53:17.285Z,3.03
2023-05-02T04:03:20.062Z,2.65
2023-05-02T04:13:24.132Z,2.85
2023-05-02T04:23:26.794Z,2.05
2023-05-02T04:33:31.501Z,2.88
2023-05-02T04:43:34.087Z,2.40
2023-05-02T04:53:38.236Z,1.92
2023-05-02T05:03:41.075Z,2.63
2023-05-02T05:13:45.479Z,1.80
2023-05-02T05:23:48.257Z,2.65
2023-05-02T05:33:52.322Z,1.80
2023-05-02T05:43:56.242Z,2.70
2023-05-02T05:54:00.314Z,3.95
2023-05-02T06:04:04.872Z,2.20
2023-05-02T06:14:08.957Z,2.30
2023-05-02T06:24:11.572Z,2.58
2023-05-02T06:34:15.520Z,2.17
2023-05-02T06:44:18.323Z,2.03
2023-05-02T06:54:22.687Z,3.20
2023-05-02T07:04:26.193Z,2.13
2023-05-02T07:14:30.174Z,2.15
2023-05-02T07:24:32.905Z,2.28
2023-05-02T07:34:37.268Z,2.10
2023-05-02T07:44:39.889Z,2.20
2023-05-02T07:54:43.829Z,2.33
2023-05-02T08:04:46.751Z,1.98
2023-05-02T08:14:50.781Z,1.60
2023-05-02T08:24:53.361Z,1.83
2023-05-02T08:34:58.040Z,1.98
2023-05-02T08:45:01.791Z,1.52
2023-05-02T08:55:08.449Z,1.33
2023-05-02T09:05:13.347Z,1.33
2023-05-02T09:15:20.717Z,0.85
2023-05-02T09:25:23.830Z,0.93
2023-05-02T09:35:27.982Z,2.15
2023-05-02T09:45:30.607Z,1.52
2023-05-02T09:55:34.641Z,0.90
2023-05-02T10:05:39.193Z,1.00
2023-05-02T10:15:46.426Z,1.00
2023-05-02T10:25:49.803Z,1.10
2023-05-02T10:35:54.970Z,0.90
2023-05-02T10:45:57.673Z,1.10
2023-05-02T10:56:21.058Z,1.23
2023-05-02T11:06:23.974Z,0.77
2023-05-02T11:16:27.987Z,1.23
2023-05-02T11:26:32.719Z,1.23
2023-05-02T11:36:36.733Z,1.02
2023-05-02T11:46:40.518Z,0.93
2023-05-02T11:56:45.058Z,0.95
2023-05-02T12:06:56.456Z,0.88
2023-05-02T12:17:01.680Z,1.13
2023-05-02T12:27:11.674Z,0.88
2023-05-02T12:37:23.485Z,0.60
2023-05-02T12:47:26.426Z,0.80
2023-05-02T12:57:30.597Z,0.85
2023-05-02T13:07:33.201Z,0.88
2023-05-02T13:17:37.331Z,0.68
2023-05-02T13:27:41.011Z,0.60
2023-05-02T13:37:45.008Z,0.70
2023-05-02T13:47:47.616Z,1.00
2023-05-02T13:57:51.683Z,0.75
2023-05-02T14:07:54.312Z,0.77
2023-05-02T14:17:59.196Z,0.80
2023-05-02T14:28:02.733Z,1.20
2023-05-02T14:38:06.801Z,0.95
2023-05-02T14:48:10.761Z,0.80
2023-05-02T14:58:20.297Z,0.65
2023-05-02T15:08:23.058Z,0.67
2023-05-02T15:18:27.092Z,0.75
2023-05-02T15:28:29.731Z,0.80
2023-05-02T15:38:34.809Z,0.68
2023-05-02T15:48:37.440Z,1.10
2023-05-02T15:58:41.545Z,0.70
2023-05-02T16:08:44.450Z,0.98
2023-05-02T16:18:48.384Z,0.88
2023-05-02T16:28:51.105Z,0.98
2023-05-02T16:38:55.290Z,1.00
2023-05-02T16:48:57.890Z,0.80
2023-05-02T16:59:01.875Z,0.90
2023-05-02T17:09:04.772Z,0.70
2023-05-02T17:19:08.755Z,0.90
2023-05-02T17:29:11.383Z,0.82
2023-05-02T17:39:15.882Z,1.30
2023-05-02T17:49:18.533Z,1.17
2023-05-02T17:59:22.670Z,1.00
2023-05-02T18:09:25.377Z,1.35
2023-05-02T18:19:29.377Z,1.45
2023-05-02T18:29:32.296Z,0.65
2023-05-02T18:39:36.667Z,0.90
2023-05-02T18:49:39.493Z,1.10
2023-05-02T18:59:43.521Z,1.20
2023-05-02T19:09:46.527Z,1.00
2023-05-02T19:19:51.866Z,0.90
2023-05-02T19:29:54.761Z,1.13
2023-05-02T19:39:59.267Z,1.08
2023-05-02T19:50:01.897Z,1.10
2023-05-02T20:00:07.312Z,1.70
2023-05-02T20:10:10.628Z,2.10
2023-05-02T20:20:14.910Z,1.27
2023-05-02T20:30:18.146Z,1.50
2023-05-02T20:40:22.422Z,1.45
2023-05-02T20:50:25.304Z,1.60
2023-05-02T21:00:29.580Z,1.63
2023-05-02T21:10:32.349Z,2.40
2023-05-02T21:20:38.074Z,2.40
2023-05-02T21:30:40.981Z,2.35
2023-05-02T21:40:44.935Z,1.85
2023-05-02T21:50:47.768Z,2.00
2023-05-02T22:00:51.850Z,2.17
2023-05-02T22:10:54.507Z,1.85
2023-05-02T22:20:58.523Z,1.77
2023-05-02T22:31:01.176Z,2.28
2023-05-02T22:41:06.546Z,2.28
2023-05-02T22:51:09.324Z,2.40
2023-05-02T23:01:13.628Z,2.55
2023-05-02T23:11:16.705Z,4.07
2023-05-02T23:21:21.038Z,2.80
2023-05-02T23:31:23.801Z,3.60
2023-05-02T23:41:28.297Z,3.47
2023-05-02T23:51:31.987Z,2.63
